Time;durP1;ratioP1;P1;durP2;ratioP2;P2;SDS_P1;SDS_P2;PMS_P1;PMS_P2;Temp;Humidity;BMP_temperature;BMP_pressure;BME280_temperature;BME280_humidity;BME280_pressure;Samples;Min_cycle;Max_cycle;Signal;HPM_P1;HPM_P2
2021/01/12 00:02:09;;;;;;;45.28;35.58;;;15.60;99.90;;;;;;5076512;28;20025;-38
2021/01/12 00:04:35;;;;;;;44.33;35.73;;;15.60;99.90;;;;;;5076210;28;20071;-36
2021/01/12 00:07:01;;;;;;;40.70;32.35;;;15.60;99.90;;;;;;5076089;28;20048;-36
2021/01/12 00:09:27;;;;;;;41.28;33.40;;;15.60;99.90;;;;;;5074666;28;20036;-36
2021/01/12 00:11:53;;;;;;;41.05;33.20;;;15.50;99.90;;;;;;5075963;28;20082;-37
2021/01/12 00:14:32;;;;;;;41.47;33.00;;;15.50;99.90;;;;;;5076125;28;20778;-36
2021/01/12 00:17:04;;;;;;;41.17;33.10;;;15.50;99.90;;;;;;5075909;28;20046;-36
2021/01/12 00:19:30;;;;;;;39.22;31.33;;;15.40;99.90;;;;;;5076143;28;20021;-37
2021/01/12 00:21:56;;;;;;;39.67;31.20;;;15.40;99.90;;;;;;5076126;28;20024;-36
2021/01/12 00:24:23;;;;;;;39.75;32.00;;;15.40;99.90;;;;;;5075777;28;20029;-36
2021/01/12 00:26:49;;;;;;;39.17;31.50;;;15.40;99.90;;;;;;5075714;28;20032;-38
2021/01/12 00:29:15;;;;;;;49.25;32.33;;;15.40;99.90;;;;;;5075983;28;20024;-36
2021/01/12 00:31:45;;;;;;;38.47;31.02;;;15.30;99.90;;;;;;5075591;28;20405;-36
2021/01/12 00:34:13;;;;;;;36.80;30.00;;;15.30;99.90;;;;;;5075802;28;20017;-36
2021/01/12 00:36:51;;;;;;;38.47;29.88;;;15.30;99.90;;;;;;5075928;28;20012;-38
2021/01/12 00:39:18;;;;;;;35.53;29.27;;;15.20;99.90;;;;;;5075759;28;20036;-38
2021/01/12 00:41:57;;;;;;;34.42;27.58;;;15.30;99.90;;;;;;5076029;28;20032;-37
2021/01/12 00:44:25;;;;;;;35.50;28.92;;;15.20;99.90;;;;;;5075828;28;20028;-37
2021/01/12 00:46:51;;;;;;;33.70;27.10;;;15.20;99.90;;;;;;5075560;28;20478;-37
2021/01/12 00:49:19;;;;;;;34.17;26.65;;;15.20;99.90;;;;;;5075767;28;20467;-37
2021/01/12 00:51:46;;;;;;;37.28;29.55;;;15.20;99.90;;;;;;5075859;28;20036;-37
2021/01/12 00:54:14;;;;;;;34.03;28.30;;;15.20;99.90;;;;;;5075372;28;20020;-37
2021/01/12 00:56:40;;;;;;;35.17;28.83;;;15.20;99.90;;;;;;5075466;28;20024;-37
2021/01/12 00:59:06;;;;;;;35.05;27.75;;;15.20;99.90;;;;;;5075041;28;20035;-37
2021/01/12 01:01:33;;;;;;;33.25;27.23;;;15.10;99.90;;;;;;5075209;28;20025;-37
2021/01/12 01:03:59;;;;;;;34.90;28.00;;;15.10;99.90;;;;;;5075175;28;20025;-37
2021/01/12 01:06:25;;;;;;;33.80;27.75;;;15.10;99.90;;;;;;5075245;28;20027;-38
2021/01/12 01:08:52;;;;;;;30.85;26.05;;;15.10;99.90;;;;;;5075177;28;20142;-37
2021/01/12 01:11:21;;;;;;;31.55;26.05;;;15.10;99.90;;;;;;5074921;28;20031;-37
2021/01/12 01:13:47;;;;;;;36.80;27.20;;;15.00;99.90;;;;;;5074978;28;20024;-37
2021/01/12 01:16:13;;;;;;;32.78;26.08;;;15.00;99.90;;;;;;5075237;28;20028;-38
2021/01/12 01:18:39;;;;;;;35.08;27.02;;;15.00;99.90;;;;;;5074015;28;20147;-37
2021/01/12 01:21:05;;;;;;;33.95;26.90;;;15.00;99.90;;;;;;5075301;28;20032;-37
2021/01/12 01:23:31;;;;;;;32.22;25.95;;;15.00;99.90;;;;;;5074896;28;20021;-38
2021/01/12 01:25:57;;;;;;;33.75;26.85;;;15.00;99.90;;;;;;5074838;28;20382;-38
2021/01/12 01:28:24;;;;;;;34.50;27.05;;;15.00;99.90;;;;;;5073795;28;20021;-37
2021/01/12 01:30:53;;;;;;;33.75;26.67;;;15.00;99.90;;;;;;5074629;28;20051;-38
2021/01/12 01:33:19;;;;;;;31.85;26.83;;;14.90;99.90;;;;;;5074546;28;20047;-36
2021/01/12 01:35:46;;;;;;;33.00;25.02;;;14.90;99.90;;;;;;5074709;28;20031;-36
2021/01/12 01:38:12;;;;;;;31.00;24.05;;;14.90;99.90;;;;;;5074778;28;20062;-37
2021/01/12 01:40:38;;;;;;;31.17;25.20;;;14.90;99.90;;;;;;5074567;28;20029;-37
2021/01/12 01:43:04;;;;;;;29.95;24.80;;;14.90;99.90;;;;;;5073110;28;20032;-37
2021/01/12 01:45:30;;;;;;;28.98;24.38;;;14.90;99.90;;;;;;5074567;28;20031;-37
2021/01/12 01:47:56;;;;;;;29.88;24.60;;;14.80;99.90;;;;;;5074327;28;20378;-37
2021/01/12 01:50:23;;;;;;;29.02;24.05;;;14.80;99.90;;;;;;5074295;28;20467;-37
2021/01/12 01:52:54;;;;;;;27.67;22.50;;;14.80;99.90;;;;;;5074277;28;20112;-37
2021/01/12 01:55:21;;;;;;;27.58;22.00;;;14.80;99.90;;;;;;5074528;28;20386;-37
2021/01/12 01:57:47;;;;;;;29.23;22.92;;;14.80;99.90;;;;;;5072268;28;20044;-37
2021/01/12 02:00:16;;;;;;;30.05;23.83;;;14.80;99.90;;;;;;5074084;28;20490;-37
2021/01/12 02:03:09;;;;;;;27.17;21.92;;;14.80;99.90;;;;;;5065241;28;20029;-37
2021/01/12 02:05:54;;;;;;;27.23;20.95;;;14.70;99.90;;;;;;5054272;28;20161;-37
2021/01/12 02:08:32;;;;;;;27.48;21.13;;;14.70;99.90;;;;;;5053741;28;20044;-37
2021/01/12 02:11:01;;;;;;;26.30;20.27;;;14.70;99.90;;;;;;5053528;28;20033;-37
2021/01/12 02:13:30;;;;;;;26.02;20.35;;;14.70;99.90;;;;;;5053764;28;20028;-37
2021/01/12 02:15:59;;;;;;;25.70;20.95;;;14.70;99.90;;;;;;5053947;28;20378;-37
2021/01/12 02:18:31;;;;;;;25.45;19.42;;;14.70;99.90;;;;;;5053836;28;20474;-37
2021/01/12 02:20:59;;;;;;;28.98;21.67;;;14.70;99.90;;;;;;5054064;28;20025;-37
2021/01/12 02:23:34;;;;;;;;;;;14.70;99.90;;;;;;5054130;28;20079;-37
2021/01/12 02:26:02;;;;;;;25.30;19.95;;;14.70;99.90;;;;;;5053867;28;20317;-37
2021/01/12 02:28:28;;;;;;;23.83;19.63;;;14.70;99.90;;;;;;5053759;28;20441;-37
2021/01/12 02:30:53;;;;;;;27.50;20.38;;;14.60;99.90;;;;;;5053768;28;20072;-37
2021/01/12 02:33:19;;;;;;;24.02;19.33;;;14.60;99.90;;;;;;5054047;28;20033;-37
2021/01/12 02:35:48;;;;;;;25.42;19.70;;;14.60;99.90;;;;;;5053524;28;20039;-37
2021/01/12 02:38:15;;;;;;;24.60;19.40;;;14.50;99.90;;;;;;5053881;28;20028;-37
2021/01/12 02:40:40;;;;;;;25.83;20.25;;;14.60;99.90;;;;;;5053498;28;20021;-37
2021/01/12 02:43:06;;;;;;;23.88;18.95;;;14.60;99.90;;;;;;5053302;28;20109;-37
2021/01/12 02:45:32;;;;;;;22.77;18.42;;;14.50;99.90;;;;;;5052225;28;20025;-37
2021/01/12 02:47:58;;;;;;;21.10;17.65;;;14.50;99.90;;;;;;5053903;28;20074;-37
2021/01/12 02:50:24;;;;;;;21.95;17.55;;;14.50;99.90;;;;;;5053596;28;20029;-37
2021/01/12 02:52:50;;;;;;;23.88;19.08;;;14.50;99.90;;;;;;5053279;28;20029;-37
2021/01/12 02:55:16;;;;;;;20.25;16.65;;;14.50;99.90;;;;;;5053453;28;20398;-37
2021/01/12 02:57:42;;;;;;;19.10;16.58;;;14.50;99.90;;;;;;5053666;28;20028;-37
2021/01/12 03:00:10;;;;;;;21.13;17.85;;;14.50;99.90;;;;;;5053232;28;20021;-37
2021/01/12 03:02:37;;;;;;;20.38;17.15;;;14.40;99.90;;;;;;5053543;28;20429;-37
2021/01/12 03:05:04;;;;;;;21.25;17.23;;;14.40;99.90;;;;;;5053204;28;20112;-37
2021/01/12 03:07:30;;;;;;;22.40;16.85;;;14.40;99.90;;;;;;5053234;28;20032;-37
2021/01/12 03:09:56;;;;;;;23.10;16.67;;;14.40;99.90;;;;;;5053244;28;20039;-37
2021/01/12 03:12:22;;;;;;;21.60;17.02;;;14.40;99.90;;;;;;5053411;28;20017;-36
2021/01/12 03:14:48;;;;;;;21.15;16.63;;;14.40;99.90;;;;;;5053169;28;20024;-37
2021/01/12 03:17:14;;;;;;;20.13;16.27;;;14.40;99.90;;;;;;5053208;28;20498;-37
2021/01/12 03:19:43;;;;;;;19.85;16.05;;;14.40;99.90;;;;;;5053098;28;20025;-36
2021/01/12 03:22:10;;;;;;;20.83;15.68;;;14.40;99.90;;;;;;5056725;28;20028;-37
2021/01/12 03:24:36;;;;;;;18.55;14.60;;;14.40;99.90;;;;;;5056546;28;20025;-36
2021/01/12 03:27:03;;;;;;;18.80;16.08;;;14.40;99.90;;;;;;5056961;28;20021;-36
2021/01/12 03:29:29;;;;;;;20.08;15.25;;;14.30;99.90;;;;;;5057221;28;20520;-36
2021/01/12 03:31:55;;;;;;;17.77;14.57;;;14.30;99.90;;;;;;5056721;28;20124;-37
2021/01/12 03:34:21;;;;;;;18.20;14.68;;;14.30;99.90;;;;;;5056984;28;20023;-37
2021/01/12 03:36:47;;;;;;;20.30;15.25;;;14.30;99.90;;;;;;5057131;28;20393;-37
2021/01/12 03:39:13;;;;;;;20.75;14.48;;;14.30;99.90;;;;;;5057477;28;20100;-38
2021/01/12 03:41:39;;;;;;;18.40;14.43;;;14.30;99.90;;;;;;5057131;28;20447;-38
2021/01/12 03:44:05;;;;;;;18.08;14.45;;;14.30;99.90;;;;;;5057122;28;20378;-38
2021/01/12 03:46:31;;;;;;;19.15;15.15;;;14.30;99.90;;;;;;5070837;28;20021;-37
2021/01/12 03:48:57;;;;;;;21.10;15.75;;;14.20;99.90;;;;;;5076551;28;20028;-37
2021/01/12 03:51:24;;;;;;;18.55;15.35;;;14.20;99.90;;;;;;5076712;28;20020;-37
2021/01/12 03:53:51;;;;;;;18.90;15.23;;;14.20;99.90;;;;;;5076438;28;20099;-37
2021/01/12 03:56:17;;;;;;;19.13;14.38;;;14.20;99.90;;;;;;5076423;28;20032;-37
2021/01/12 03:58:43;;;;;;;17.35;13.60;;;14.20;99.90;;;;;;5076457;28;20016;-37
2021/01/12 04:01:10;;;;;;;16.67;13.73;;;14.20;99.90;;;;;;5076406;28;20497;-37
2021/01/12 04:03:36;;;;;;;25.88;14.43;;;14.20;99.90;;;;;;5076528;28;20070;-37
2021/01/12 04:06:09;;;;;;;16.80;13.93;;;14.20;99.90;;;;;;5076270;28;20025;-38
2021/01/12 04:08:35;;;;;;;16.20;13.30;;;14.10;99.90;;;;;;5076578;28;20078;-37
2021/01/12 04:11:01;;;;;;;17.00;13.70;;;14.10;99.90;;;;;;5076247;28;20060;-37
2021/01/12 04:13:27;;;;;;;19.35;14.52;;;14.10;99.90;;;;;;5076179;28;20021;-38
2021/01/12 04:15:53;;;;;;;18.42;14.50;;;14.10;99.90;;;;;;5076189;28;20347;-37
2021/01/12 04:18:19;;;;;;;17.98;13.95;;;14.10;99.90;;;;;;5076098;28;20025;-37
2021/01/12 04:20:44;;;;;;;16.83;13.85;;;14.10;99.90;;;;;;5076165;28;20466;-37
2021/01/12 04:23:10;;;;;;;15.65;13.02;;;14.10;99.90;;;;;;5076062;28;20021;-37
2021/01/12 04:25:39;;;;;;;18.25;14.05;;;14.10;99.90;;;;;;5074674;28;20078;-37
2021/01/12 04:28:05;;;;;;;17.40;13.40;;;14.10;99.90;;;;;;5076145;28;20043;-37
2021/01/12 04:30:31;;;;;;;16.63;13.45;;;14.10;99.90;;;;;;5075918;28;20044;-37
2021/01/12 04:32:57;;;;;;;17.38;13.60;;;14.10;99.90;;;;;;5074848;28;20032;-37
2021/01/12 04:35:23;;;;;;;17.15;13.82;;;14.10;99.90;;;;;;5075903;28;20099;-37
2021/01/12 04:37:49;;;;;;;18.55;13.27;;;14.00;99.90;;;;;;5075701;28;20427;-37
2021/01/12 04:40:15;;;;;;;15.52;12.93;;;14.00;99.90;;;;;;5075989;28;20025;-37
2021/01/12 04:42:42;;;;;;;15.50;12.55;;;14.00;99.90;;;;;;5075879;28;20063;-37
2021/01/12 04:45:09;;;;;;;15.40;12.30;;;14.00;99.90;;;;;;5075965;28;20025;-37
2021/01/12 04:47:35;;;;;;;15.55;12.68;;;14.00;99.90;;;;;;5075596;28;20036;-37
2021/01/12 04:50:05;;;;;;;15.13;12.38;;;14.00;99.90;;;;;;5075573;28;20025;-37
2021/01/12 04:52:48;;;;;;;15.02;11.50;;;13.90;99.90;;;;;;5074123;28;20071;-37
2021/01/12 04:55:16;;;;;;;15.02;11.88;;;13.90;99.90;;;;;;5075558;28;20467;-37
2021/01/12 04:57:42;;;;;;;16.27;12.90;;;14.00;99.90;;;;;;5075565;28;20021;-37
2021/01/12 05:00:24;;;;;;;15.15;11.40;;;13.90;99.90;;;;;;5075244;28;20032;-37
2021/01/12 05:03:00;;;;;;;14.63;11.30;;;13.90;99.90;;;;;;5075268;28;20024;-37
2021/01/12 05:05:34;;;;;;;14.75;12.27;;;13.90;99.90;;;;;;5075131;28;20032;-38
2021/01/12 05:08:09;;;;;;;15.07;11.90;;;13.90;99.90;;;;;;5075161;28;20032;-37
2021/01/12 05:10:39;;;;;;;12.73;10.88;;;13.90;99.90;;;;;;5075078;28;20498;-37
2021/01/12 05:13:11;;;;;;;12.95;11.18;;;13.90;99.90;;;;;;5074893;28;20040;-37
2021/01/12 05:15:37;;;;;;;13.80;11.25;;;13.90;99.90;;;;;;5075300;28;20078;-37
2021/01/12 05:18:09;;;;;;;14.93;11.60;;;13.90;99.90;;;;;;5074918;28;20043;-37
2021/01/12 05:20:55;;;;;;;12.80;11.02;;;13.80;99.90;;;;;;5074658;28;20044;-37
2021/01/12 05:23:24;;;;;;;13.00;10.85;;;13.90;99.90;;;;;;5074171;28;20478;-37
2021/01/12 05:25:52;;;;;;;12.63;10.60;;;13.90;99.90;;;;;;5074780;28;20021;-38
2021/01/12 05:28:18;;;;;;;13.32;10.75;;;13.90;99.90;;;;;;5074657;28;20043;-37
2021/01/12 05:30:47;;;;;;;14.52;11.38;;;13.80;99.90;;;;;;5074835;28;20053;-35
2021/01/12 05:33:18;;;;;;;14.07;10.95;;;13.80;99.90;;;;;;5072792;28;20029;-35
2021/01/12 05:35:46;;;;;;;16.10;11.52;;;13.80;99.90;;;;;;5073482;28;20031;-35
2021/01/12 05:38:27;;;;;;;13.48;10.13;;;13.80;99.90;;;;;;5074779;28;20016;-35
2021/01/12 05:40:55;;;;;;;13.82;10.77;;;13.80;99.90;;;;;;5074444;28;20077;-35
2021/01/12 05:43:35;;;;;;;16.98;11.18;;;13.80;99.90;;;;;;5074053;28;20487;-37
2021/01/12 05:46:09;;;;;;;11.65;9.43;;;13.80;99.90;;;;;;5074462;28;20509;-36
2021/01/12 05:48:37;;;;;;;14.80;10.43;;;13.80;99.90;;;;;;5090026;28;20028;-36
2021/01/12 05:51:08;;;;;;;12.85;10.35;;;13.80;99.90;;;;;;5074566;28;20032;-36
2021/01/12 05:53:45;;;;;;;13.32;9.90;;;13.80;99.90;;;;;;5074384;28;20482;-36
2021/01/12 05:56:22;;;;;;;12.35;9.82;;;13.70;99.90;;;;;;5074231;28;20027;-36
2021/01/12 05:58:50;;;;;;;13.25;9.77;;;13.80;99.90;;;;;;5074386;28;20029;-36
2021/01/12 06:01:36;;;;;;;;;;;13.80;99.90;;;;;;5074585;28;20020;-36
2021/01/12 06:04:09;;;;;;;12.15;9.50;;;13.80;99.90;;;;;;5069977;28;19912;-36
2021/01/12 06:06:38;;;;;;;13.25;9.68;;;13.80;99.90;;;;;;5074041;28;20137;-36
2021/01/12 06:09:07;;;;;;;12.85;9.90;;;13.80;99.90;;;;;;5074269;28;20035;-36
2021/01/12 06:11:35;;;;;;;13.25;10.10;;;13.70;99.90;;;;;;5073861;28;20589;-36
2021/01/12 06:14:13;;;;;;;12.00;9.95;;;13.70;99.90;;;;;;5073943;28;20486;-36
2021/01/12 06:16:42;;;;;;;11.63;9.68;;;13.70;99.90;;;;;;5074041;28;20386;-36
2021/01/12 06:19:19;;;;;;;13.48;10.13;;;13.70;99.90;;;;;;5073805;28;20021;-36
2021/01/12 06:21:54;;;;;;;12.23;10.40;;;13.70;99.90;;;;;;5074152;28;20378;-36
2021/01/12 06:24:33;;;;;;;14.57;9.13;;;13.70;99.90;;;;;;5073600;28;20026;-36
2021/01/12 06:26:59;;;;;;;13.13;9.63;;;13.60;99.90;;;;;;5089330;28;20023;-36
2021/01/12 06:29:33;;;;;;;13.73;9.93;;;13.70;99.90;;;;;;5073912;28;20032;-36
2021/01/12 06:31:58;;;;;;;11.82;9.10;;;13.60;99.90;;;;;;5072287;28;20052;-36
2021/01/12 06:34:25;;;;;;;12.18;9.15;;;13.60;99.90;;;;;;5072300;28;20028;-36
2021/01/12 06:36:57;;;;;;;11.35;9.45;;;13.60;99.90;;;;;;5071986;28;20525;-36
2021/01/12 06:39:28;;;;;;;13.43;9.75;;;13.60;99.90;;;;;;5072180;28;20493;-36
2021/01/12 06:41:54;;;;;;;13.63;9.52;;;13.60;99.90;;;;;;5072642;28;20028;-36
2021/01/12 06:44:30;;;;;;;13.60;10.10;;;13.60;99.90;;;;;;5072152;28;20024;-36
2021/01/12 06:46:57;;;;;;;12.63;10.50;;;13.60;99.90;;;;;;5071279;28;20115;-35
2021/01/12 06:49:25;;;;;;;14.50;11.30;;;13.60;99.90;;;;;;5072957;28;20474;-38
2021/01/12 06:52:09;;;;;;;13.02;10.52;;;13.60;99.90;;;;;;5072527;28;20031;-35
2021/01/12 06:54:36;;;;;;;12.85;10.80;;;13.60;99.90;;;;;;5071326;28;20201;-35
2021/01/12 06:57:10;;;;;;;12.20;9.50;;;13.60;99.90;;;;;;5072684;28;20027;-35
2021/01/12 06:59:42;;;;;;;14.32;10.27;;;13.60;99.90;;;;;;5070343;28;20021;-37
2021/01/12 07:02:12;;;;;;;14.57;11.52;;;13.60;99.90;;;;;;5072415;28;20036;-38
2021/01/12 07:04:38;;;;;;;13.27;10.60;;;13.60;99.90;;;;;;5068231;28;20391;-38
2021/01/12 07:07:05;;;;;;;14.52;10.98;;;13.60;99.90;;;;;;5067720;28;20029;-38
2021/01/12 07:09:31;;;;;;;13.65;10.70;;;13.60;99.90;;;;;;5072285;28;20558;-39
2021/01/12 07:12:08;;;;;;;13.43;10.43;;;13.60;99.90;;;;;;5071811;28;20116;-44
2021/01/12 07:14:49;;;;;;;12.60;10.30;;;13.60;99.90;;;;;;5071961;28;20024;-43
2021/01/12 07:17:26;;;;;;;12.88;10.52;;;13.50;99.90;;;;;;5067812;28;20466;-45
2021/01/12 07:20:08;;;;;;;18.13;10.93;;;13.60;99.90;;;;;;5071765;28;20028;-43
2021/01/12 07:22:36;;;;;;;14.52;10.98;;;13.60;99.90;;;;;;5069917;28;20658;-43
2021/01/12 07:25:04;;;;;;;;;;;13.60;99.90;;;;;;5073019;28;20149;-42
2021/01/12 07:27:30;;;;;;;16.65;12.57;;;13.60;99.90;;;;;;5072410;28;19912;-42
2021/01/12 07:29:56;;;;;;;19.42;13.00;;;13.60;99.90;;;;;;5072758;28;20020;-42
2021/01/12 07:32:36;;;;;;;18.88;14.07;;;13.60;99.90;;;;;;5071952;28;20522;-44
2021/01/12 07:35:07;;;;;;;20.00;15.25;;;13.60;99.90;;;;;;5072724;28;20024;-43
2021/01/12 07:37:41;;;;;;;20.52;15.32;;;13.60;99.90;;;;;;5072890;28;20417;-44
2021/01/12 07:40:10;;;;;;;20.73;16.25;;;13.60;99.90;;;;;;5072956;28;20021;-43
2021/01/12 07:42:45;;;;;;;22.42;17.25;;;13.60;99.90;;;;;;5072442;28;20486;-44
2021/01/12 07:45:12;;;;;;;23.20;18.20;;;13.70;99.90;;;;;;5072727;28;20048;-44
2021/01/12 07:47:38;;;;;;;25.20;19.42;;;13.70;99.90;;;;;;5072658;28;20024;-44
2021/01/12 07:50:06;;;;;;;24.45;19.50;;;13.70;99.90;;;;;;5072550;28;20502;-43
2021/01/12 07:52:32;;;;;;;31.20;20.75;;;13.70;99.90;;;;;;5072341;28;20486;-44
2021/01/12 07:54:59;;;;;;;27.77;20.92;;;13.70;99.90;;;;;;5072526;28;20028;-43
2021/01/12 07:57:26;;;;;;;26.52;20.83;;;13.70;99.90;;;;;;5071110;28;20094;-43
2021/01/12 07:59:52;;;;;;;29.63;22.63;;;13.80;99.90;;;;;;5072506;28;20390;-43
2021/01/12 08:02:18;;;;;;;29.92;22.25;;;13.80;99.90;;;;;;5072101;28;20029;-43
2021/01/12 08:04:45;;;;;;;30.88;23.33;;;13.80;99.90;;;;;;5072439;28;20025;-43
2021/01/12 08:07:24;;;;;;;30.45;23.17;;;13.90;99.90;;;;;;5072636;28;20029;-42
2021/01/12 08:09:57;;;;;;;32.85;23.52;;;13.80;99.90;;;;;;5075642;28;20462;-43
2021/01/12 08:12:24;;;;;;;36.38;25.05;;;13.80;99.90;;;;;;5075575;28;20029;-43
2021/01/12 08:14:51;;;;;;;34.45;23.88;;;13.90;99.90;;;;;;5075612;28;20027;-43
2021/01/12 08:17:26;;;;;;;30.70;23.55;;;13.90;99.90;;;;;;5075722;28;20024;-43
2021/01/12 08:19:53;;;;;;;35.58;25.45;;;13.90;99.90;;;;;;5075659;28;20024;-44
2021/01/12 08:22:19;;;;;;;33.03;25.30;;;13.90;99.90;;;;;;5075837;28;20056;-43
2021/01/12 08:24:46;;;;;;;33.47;25.20;;;14.00;99.90;;;;;;5074513;28;20475;-43
2021/01/12 08:27:19;;;;;;;33.05;25.55;;;14.00;99.90;;;;;;5075329;28;20029;-43
2021/01/12 08:29:45;;;;;;;36.08;27.05;;;13.90;99.90;;;;;;5075560;28;20056;-43
2021/01/12 08:32:13;;;;;;;40.55;28.02;;;14.00;99.90;;;;;;5075139;28;20087;-43
2021/01/12 08:34:44;;;;;;;;;;;13.90;99.90;;;;;;5075359;28;20053;-43
2021/01/12 08:37:14;;;;;;;44.28;33.55;;;13.90;99.90;;;;;;5072937;28;19908;-43
2021/01/12 08:39:41;;;;;;;27.90;21.45;;;13.80;99.90;;;;;;5074490;28;20017;-43
2021/01/12 08:42:08;;;;;;;25.13;16.73;;;13.70;99.90;;;;;;5074118;28;20108;-43
2021/01/12 08:44:38;;;;;;;21.77;16.43;;;13.60;99.90;;;;;;5074281;28;20037;-43
2021/01/12 08:47:05;;;;;;;21.98;16.98;;;13.60;99.90;;;;;;5074181;28;20885;-43
2021/01/12 08:49:33;;;;;;;17.42;11.70;;;13.70;99.90;;;;;;5074252;28;20027;-45
2021/01/12 08:52:00;;;;;;;17.13;14.20;;;13.60;99.90;;;;;;5074062;28;20024;-43
2021/01/12 08:54:26;;;;;;;45.28;32.40;;;13.60;99.90;;;;;;5074287;28;20036;-42
2021/01/12 08:57:18;;;;;;;52.42;37.88;;;13.70;99.90;;;;;;5074039;28;20031;-44
2021/01/12 08:59:44;;;;;;;51.42;37.03;;;13.60;99.90;;;;;;5072811;28;20043;-42
2021/01/12 09:02:20;;;;;;;35.67;27.63;;;13.70;99.90;;;;;;5073741;28;20021;-43
2021/01/12 09:04:57;;;;;;;45.90;32.22;;;13.70;99.90;;;;;;5073745;28;20027;-43
2021/01/12 09:07:23;;;;;;;36.72;27.90;;;13.70;99.90;;;;;;5074164;28;20629;-43
2021/01/12 09:09:54;;;;;;;34.95;25.23;;;13.70;99.90;;;;;;5068530;28;20111;-44
2021/01/12 09:12:20;;;;;;;24.88;17.05;;;13.90;99.90;;;;;;5072255;28;20078;-44
2021/01/12 09:14:48;;;;;;;24.33;17.60;;;13.90;99.90;;;;;;5068992;28;20024;-43
2021/01/12 09:17:18;;;;;;;17.98;12.68;;;13.90;99.90;;;;;;5072552;28;20044;-42
2021/01/12 09:19:55;;;;;;;15.25;10.48;;;13.90;99.90;;;;;;5072740;28;20111;-43
2021/01/12 09:22:21;;;;;;;13.82;9.55;;;13.90;99.90;;;;;;5072819;28;20023;-42
2021/01/12 09:24:55;;;;;;;13.80;9.77;;;13.90;99.90;;;;;;5073005;28;20028;-42
2021/01/12 09:27:30;;;;;;;12.50;8.45;;;13.90;99.90;;;;;;5071495;28;20028;-42
2021/01/12 09:29:56;;;;;;;13.18;8.63;;;14.00;99.90;;;;;;5073346;28;20024;-42
2021/01/12 09:32:25;;;;;;;11.75;7.85;;;14.10;99.90;;;;;;5073102;28;20060;-42
2021/01/12 09:34:51;;;;;;;8.65;6.35;;;14.10;99.90;;;;;;5073512;28;20096;-42
2021/01/12 09:37:17;;;;;;;16.88;11.45;;;14.00;99.90;;;;;;5072635;28;20539;-42
2021/01/12 09:39:54;;;;;;;41.55;30.75;;;14.10;99.90;;;;;;5073247;28;20066;-42
2021/01/12 09:42:25;;;;;;;47.30;34.80;;;14.10;99.90;;;;;;5059174;28;20370;-42
2021/01/12 09:44:55;;;;;;;68.65;46.28;;;14.10;99.90;;;;;;5073069;28;20629;-42
2021/01/12 09:47:22;;;;;;;78.82;54.15;;;14.10;99.90;;;;;;5072729;28;20070;-42
2021/01/12 09:49:48;;;;;;;105.78;76.95;;;14.10;99.90;;;;;;5072857;28;20078;-42
2021/01/12 09:52:16;;;;;;;65.97;46.67;;;14.20;99.90;;;;;;5072801;28;20025;-42
2021/01/12 09:54:51;;;;;;;86.95;64.65;;;14.20;99.90;;;;;;5062066;28;20455;-43
2021/01/12 09:57:17;;;;;;;107.45;67.25;;;14.20;99.90;;;;;;5072386;28;20056;-41
2021/01/12 09:59:42;;;;;;;76.50;56.30;;;14.30;99.90;;;;;;5072608;28;20453;-42
2021/01/12 10:02:09;;;;;;;77.45;57.17;;;14.30;99.90;;;;;;5072672;28;20024;-43
2021/01/12 10:04:35;;;;;;;89.70;56.33;;;14.30;99.90;;;;;;5072675;28;20111;-43
2021/01/12 10:07:01;;;;;;;69.10;49.35;;;14.40;99.90;;;;;;5072819;28;20032;-43
2021/01/12 10:09:28;;;;;;;59.05;44.40;;;14.40;99.90;;;;;;5072819;28;20024;-43
2021/01/12 10:11:54;;;;;;;56.03;42.00;;;14.40;99.90;;;;;;5073055;28;20040;-43
2021/01/12 10:14:21;;;;;;;51.00;37.58;;;14.50;99.90;;;;;;5073199;28;20044;-43
2021/01/12 10:16:48;;;;;;;43.58;32.20;;;14.50;99.90;;;;;;5073169;28;20016;-43
2021/01/12 10:19:14;;;;;;;47.03;33.88;;;14.60;99.90;;;;;;5073196;28;20074;-43
2021/01/12 10:21:40;;;;;;;43.78;31.27;;;14.60;99.90;;;;;;5072966;28;20134;-43
2021/01/12 10:24:06;;;;;;;44.30;30.85;;;14.60;99.90;;;;;;5073000;28;20031;-43
2021/01/12 10:26:33;;;;;;;43.95;30.98;;;14.70;99.90;;;;;;5073327;28;20089;-43
2021/01/12 10:28:59;;;;;;;39.92;30.20;;;14.80;99.90;;;;;;5071826;28;20143;-43
2021/01/12 10:31:25;;;;;;;38.95;29.40;;;14.80;99.90;;;;;;5072066;28;20053;-43
2021/01/12 10:33:51;;;;;;;31.25;24.02;;;14.90;99.90;;;;;;5072883;28;20499;-43
2021/01/12 10:36:19;;;;;;;26.35;21.40;;;14.90;99.90;;;;;;5073197;28;20113;-43
2021/01/12 10:38:45;;;;;;;55.33;39.22;;;14.90;99.90;;;;;;5072331;28;20040;-42
2021/01/12 10:41:11;;;;;;;35.35;27.00;;;15.00;99.90;;;;;;5069982;28;20027;-43
2021/01/12 10:43:38;;;;;;;30.77;22.83;;;15.00;99.90;;;;;;5072363;28;20052;-43
2021/01/12 10:46:04;;;;;;;30.05;22.63;;;15.00;99.90;;;;;;5072785;28;20024;-43
2021/01/12 10:48:30;;;;;;;39.97;28.70;;;15.10;99.90;;;;;;5072938;28;20048;-43
2021/01/12 10:50:56;;;;;;;36.28;26.88;;;15.20;99.90;;;;;;5073316;28;20052;-43
2021/01/12 10:53:22;;;;;;;27.65;19.38;;;15.30;99.90;;;;;;5072521;28;20455;-43
2021/01/12 10:55:49;;;;;;;19.25;15.13;;;15.30;99.90;;;;;;5072997;28;20035;-43
2021/01/12 10:58:15;;;;;;;8.05;6.75;;;15.40;99.90;;;;;;5071178;28;20028;-42
2021/01/12 11:00:41;;;;;;;9.32;5.95;;;15.50;99.90;;;;;;5073100;28;20028;-42
2021/01/12 11:03:08;;;;;;;7.75;5.70;;;15.40;99.90;;;;;;5072707;28;20062;-42
2021/01/12 11:05:34;;;;;;;15.75;10.65;;;15.50;99.90;;;;;;5072335;28;20051;-42
2021/01/12 11:08:01;;;;;;;28.63;13.88;;;15.60;99.90;;;;;;5072425;28;20028;-42
2021/01/12 11:10:28;;;;;;;21.50;16.38;;;15.70;99.90;;;;;;5072789;28;20103;-42
2021/01/12 11:12:54;;;;;;;17.23;13.40;;;15.70;99.90;;;;;;5072382;28;20028;-42
2021/01/12 11:15:20;;;;;;;12.50;10.13;;;15.80;99.90;;;;;;5072825;28;20021;-42
2021/01/12 11:17:46;;;;;;;14.93;10.45;;;15.90;99.90;;;;;;5072651;28;20379;-42
2021/01/12 11:20:13;;;;;;;14.02;10.93;;;16.00;99.90;;;;;;5072633;28;20032;-42
2021/01/12 11:22:40;;;;;;;12.93;10.55;;;16.10;99.90;;;;;;5072468;28;20024;-42
2021/01/12 11:25:07;;;;;;;24.15;10.73;;;16.20;99.90;;;;;;5071342;28;20116;-42
2021/01/12 11:27:34;;;;;;;17.95;9.88;;;16.30;99.90;;;;;;5071584;28;20025;-42
2021/01/12 11:30:00;;;;;;;32.67;11.85;;;16.40;99.90;;;;;;5071950;28;20104;-42
2021/01/12 11:32:26;;;;;;;15.95;10.10;;;16.60;99.90;;;;;;5071868;28;20044;-42
2021/01/12 11:34:53;;;;;;;17.40;10.52;;;16.70;99.90;;;;;;5071509;28;20029;-42
2021/01/12 11:37:19;;;;;;;18.75;10.35;;;16.90;99.90;;;;;;5072406;28;20467;-42
2021/01/12 11:39:45;;;;;;;15.35;11.13;;;17.10;99.90;;;;;;5072013;28;20028;-42
2021/01/12 11:42:12;;;;;;;14.98;11.48;;;17.20;99.90;;;;;;5073694;28;20036;-43
2021/01/12 11:44:39;;;;;;;15.25;10.73;;;17.30;99.90;;;;;;5075546;28;20382;-42
2021/01/12 11:47:06;;;;;;;26.45;11.82;;;17.40;99.90;;;;;;5076306;28;20127;-43
2021/01/12 11:49:32;;;;;;;13.65;10.02;;;17.50;99.90;;;;;;5076485;28;20078;-43
2021/01/12 11:51:58;;;;;;;21.58;12.73;;;17.60;99.90;;;;;;5076121;28;20031;-42
2021/01/12 11:54:24;;;;;;;58.47;35.25;;;17.70;99.90;;;;;;5076214;28;20405;-43
2021/01/12 11:56:55;;;;;;;74.07;57.47;;;17.70;99.90;;;;;;5076323;28;20028;-43
2021/01/12 11:59:24;;;;;;;79.13;62.70;;;17.80;99.90;;;;;;5075789;28;20050;-43
2021/01/12 12:01:52;;;;;;;73.28;52.08;;;17.80;99.90;;;;;;5075598;28;20024;-42
2021/01/12 12:04:18;;;;;;;;;;;17.80;99.90;;;;;;5074845;28;20192;-46
2021/01/12 12:06:48;;;;;;;63.92;43.00;;;17.70;99.90;;;;;;5074861;28;19908;-43
2021/01/12 12:09:15;;;;;;;63.97;42.45;;;17.70;99.90;;;;;;5074546;28;20189;-44
2021/01/12 12:11:41;;;;;;;56.85;41.80;;;17.70;99.90;;;;;;5074400;28;20029;-45
2021/01/12 12:14:08;;;;;;;60.88;40.35;;;17.70;99.90;;;;;;5073923;28;20477;-45
2021/01/12 12:16:35;;;;;;;54.20;39.20;;;17.70;99.90;;;;;;5074452;28;20512;-45
2021/01/12 12:19:01;;;;;;;56.22;38.92;;;17.70;99.90;;;;;;5074196;28;20074;-45
2021/01/12 12:21:28;;;;;;;54.28;37.05;;;17.80;99.90;;;;;;5074255;28;20017;-46
2021/01/12 12:23:54;;;;;;;64.27;49.03;;;17.80;99.90;;;;;;5074161;28;20036;-44
2021/01/12 12:26:20;;;;;;;79.18;53.83;;;17.80;99.90;;;;;;5074199;28;20070;-44
2021/01/12 12:28:46;;;;;;;68.30;53.08;;;17.90;99.90;;;;;;5073898;28;20051;-45
2021/01/12 12:31:13;;;;;;;69.03;52.30;;;17.90;99.90;;;;;;5073704;28;20052;-44
2021/01/12 12:33:39;;;;;;;73.97;50.97;;;17.90;99.90;;;;;;5074247;28;20415;-45
2021/01/12 12:36:07;;;;;;;67.72;50.70;;;18.00;99.90;;;;;;5073954;28;20027;-45
2021/01/12 12:38:36;;;;;;;67.10;49.47;;;17.90;99.90;;;;;;5074024;28;20070;-45